Time;durP1;ratioP1;P1;durP2;ratioP2;P2;SDS_P1;SDS_P2;PMS_P1;PMS_P2;Temp;Humidity;BMP_temperature;BMP_pressure;BME280_temperature;BME280_humidity;BME280_pressure;Samples;Min_cycle;Max_cycle;Signal;HPM_P1;HPM_P2
2021/11/07 00:01:42;;;;;;;;;;;9.40;61.60;;;;;;4367931;32;20167;-38
2021/11/07 00:06:41;;;;;;;;;;;9.30;61.60;;;;;;4370812;32;19967;-38
2021/11/07 00:09:16;;;;;;;;;;;9.30;61.70;;;;;;4371232;32;20077;-37
2021/11/07 00:11:43;;;;;;;;;;;9.40;61.70;;;;;;4358038;32;20459;-38
2021/11/07 00:14:11;;;;;;;;;;;9.30;61.80;;;;;;4371961;32;19973;-38
2021/11/07 00:16:39;;;;;;;;;;;9.30;61.70;;;;;;4359091;32;19966;-38
2021/11/07 00:19:11;;;;;;;;;;;9.30;61.60;;;;;;4373214;32;19962;-39
2021/11/07 00:21:49;;;;;;;;;;;9.30;61.60;;;;;;4373591;32;19962;-38
2021/11/07 00:24:24;;;;;;;;;;;9.30;61.70;;;;;;4359889;32;19966;-40
2021/11/07 00:29:47;;;;;;;;;;;9.40;61.60;;;;;;4373055;32;20000;-38
2021/11/07 00:32:30;;;;;;;;;;;9.40;61.50;;;;;;4373348;32;19966;-38
2021/11/07 00:37:44;;;;;;;;;;;9.40;61.50;;;;;;4375967;32;19954;-38
2021/11/07 00:45:23;;;;;;;;;;;9.50;61.40;;;;;;4375842;32;19962;-38
2021/11/07 00:48:07;;;;;;;;;;;9.50;61.40;;;;;;4375946;32;20327;-38
2021/11/07 00:50:53;;;;;;;;;;;9.50;61.40;;;;;;4375939;32;20060;-38
2021/11/07 00:56:04;;;;;;;;;;;9.50;61.40;;;;;;4375925;32;20013;-39
2021/11/07 00:58:35;;;;;;;;;;;9.50;61.40;;;;;;4375557;32;20042;-39
2021/11/07 01:01:05;;;;;;;;;;;9.50;61.30;;;;;;4375533;32;20413;-38
2021/11/07 01:03:31;;;;;;;;;;;9.50;61.30;;;;;;4375988;32;19973;-38
2021/11/07 01:05:58;;;;;;;;;;;9.50;61.30;;;;;;4375782;32;19970;-39
2021/11/07 01:08:24;;;;;;;;;;;9.50;61.40;;;;;;4375794;32;19985;-39
2021/11/07 01:10:50;;;;;;;;;;;9.50;61.40;;;;;;4375573;32;19959;-39
2021/11/07 01:13:17;;;;;;;;;;;9.50;61.50;;;;;;4375338;32;19997;-39
2021/11/07 01:15:43;;;;;;;;;;;9.50;61.40;;;;;;4375801;32;20437;-38
2021/11/07 01:18:09;;;;;;;;;;;9.50;61.40;;;;;;4375517;32;19978;-39
2021/11/07 01:20:35;;;;;;;;;;;9.50;61.50;;;;;;4375647;32;20000;-39
2021/11/07 01:23:23;;;;;;;;;;;9.50;61.50;;;;;;4375832;32;20101;-39
2021/11/07 01:25:54;;;;;;;;;;;9.50;61.60;;;;;;4390796;32;20000;-38
2021/11/07 01:28:21;;;;;;;;;;;9.50;61.50;;;;;;4390635;32;19961;-38
2021/11/07 01:30:53;;;;;;;;;;;9.40;61.50;;;;;;4390488;32;19997;-40
2021/11/07 01:33:23;;;;;;;;;;;9.50;61.60;;;;;;4376602;32;19986;-39
2021/11/07 01:38:23;;;;;;;;;;;9.40;61.60;;;;;;4390357;32;19973;-39
2021/11/07 01:41:00;;;;;;;;;;;9.40;61.60;;;;;;4390351;32;19978;-38
2021/11/07 01:43:27;;;;;;;;;;;9.40;61.40;;;;;;4390413;32;20496;-38
2021/11/07 01:48:45;;;;;;;;;;;9.40;61.30;;;;;;4390187;32;19957;-38
2021/11/07 01:51:11;;;;;;;;;;;9.40;61.20;;;;;;4390224;32;19966;-38
2021/11/07 01:53:39;;;;;;;;;;;9.30;61.20;;;;;;4390299;32;20446;-38
2021/11/07 01:56:14;;;;;;;;;;;9.30;61.30;;;;;;4390442;32;19966;-39
2021/11/07 01:58:43;;;;;;;;;;;9.30;61.30;;;;;;4390211;32;19989;-38
2021/11/07 02:01:09;;;;;;;;;;;9.30;61.30;;;;;;4390282;32;19989;-38
2021/11/07 02:03:36;;;;;;;;;;;9.30;61.30;;;;;;4390217;32;19968;-38
2021/11/07 02:06:02;;;;;;;;;;;9.30;61.20;;;;;;4390404;32;20414;-39
2021/11/07 02:08:29;;;;;;;;;;;9.30;61.30;;;;;;4390215;32;19977;-39
2021/11/07 02:10:55;;;;;;;;;;;9.20;61.20;;;;;;4389887;32;20456;-40
2021/11/07 02:13:22;;;;;;;;;;;9.20;61.20;;;;;;4389600;32;19977;-40
2021/11/07 02:15:49;;;;;;;;;;;9.30;61.30;;;;;;4389957;32;19969;-40
2021/11/07 02:18:18;;;;;;;;;;;9.20;61.20;;;;;;4376422;32;19962;-40
2021/11/07 02:20:45;;;;;;;;;;;9.20;61.80;;;;;;4389627;32;20043;-40
2021/11/07 02:23:16;;;;;;;;;;;9.20;61.20;;;;;;4389485;32;19973;-40
2021/11/07 02:25:43;;;;;;;;;;;9.10;61.20;;;;;;4389776;32;20397;-39
2021/11/07 02:28:10;;;;;;;;;;;9.10;61.20;;;;;;4389701;32;19997;-39
2021/11/07 02:30:37;;;;;;;;;;;9.10;61.20;;;;;;4389947;32;19973;-40
2021/11/07 02:33:04;;;;;;;;;;;9.00;61.10;;;;;;4389578;32;19962;-41
2021/11/07 02:35:31;;;;;;;;;;;9.00;61.10;;;;;;4389785;32;19981;-39
2021/11/07 02:37:57;;;;;;;;;;;9.00;61.10;;;;;;4375722;32;20501;-40
2021/11/07 02:40:24;;;;;;;;;;;9.00;61.30;;;;;;4375543;32;19954;-40
2021/11/07 02:42:51;;;;;;;;;;;9.00;61.30;;;;;;4389803;32;19986;-39
2021/11/07 02:45:18;;;;;;;;;;;9.00;61.20;;;;;;4385357;32;19978;-40
2021/11/07 02:47:45;;;;;;;;;;;9.00;61.30;;;;;;4356784;32;19970;-40
2021/11/07 02:50:12;;;;;;;;;;;9.00;61.20;;;;;;4356625;32;20060;-39
2021/11/07 02:52:39;;;;;;;;;;;9.00;61.30;;;;;;4356624;32;20038;-41
2021/11/07 02:55:05;;;;;;;;;;;9.00;61.30;;;;;;4356841;32;20484;-39
2021/11/07 02:57:32;;;;;;;;;;;8.90;61.40;;;;;;4356373;32;20597;-39
2021/11/07 02:59:58;;;;;;;;;;;8.90;61.50;;;;;;4356770;32;19981;-41
2021/11/07 03:02:28;;;;;;;;;;;8.90;61.70;;;;;;4356371;32;20411;-40
2021/11/07 03:04:55;;;;;;;;;;;8.90;61.70;;;;;;4356174;32;20584;-39
2021/11/07 03:07:21;;;;;;;;;;;8.90;61.70;;;;;;4356433;32;19978;-40
2021/11/07 03:09:47;;;;;;;;;;;8.90;61.80;;;;;;4356958;32;20490;-40
2021/11/07 03:12:14;;;;;;;;;;;8.90;61.80;;;;;;4356153;32;19977;-40
2021/11/07 03:14:46;;;;;;;;;;;8.90;61.70;;;;;;4356479;32;19967;-41
2021/11/07 03:17:13;;;;;;;;;;;8.90;61.80;;;;;;4356159;32;20009;-40
2021/11/07 03:19:40;;;;;;;;;;;8.80;61.90;;;;;;4371940;32;19966;-41
2021/11/07 03:22:08;;;;;;;;;;;8.80;62.00;;;;;;4373503;32;20436;-40
2021/11/07 03:24:36;;;;;;;;;;;8.80;62.10;;;;;;4373508;32;19994;-41
2021/11/07 03:27:11;;;;;;;;;;;8.80;62.20;;;;;;4373745;32;19994;-40
2021/11/07 03:29:38;;;;;;;;;;;8.80;62.30;;;;;;4361006;32;19966;-41
2021/11/07 03:32:19;;;;;;;;;;;8.80;62.30;;;;;;4373888;32;19985;-39
2021/11/07 03:34:51;;;;;;;;;;;8.90;62.50;;;;;;4372047;32;19981;-40
2021/11/07 03:37:26;;;;;;;;;;;8.90;62.30;;;;;;4374209;32;20012;-40
2021/11/07 03:39:54;;;;;;;;;;;8.90;62.40;;;;;;4374007;32;19985;-40
2021/11/07 03:42:21;;;;;;;;;;;8.90;62.50;;;;;;4373629;32;20456;-40
2021/11/07 03:44:48;;;;;;;;;;;9.00;62.50;;;;;;4359466;32;19978;-40
2021/11/07 03:47:14;;;;;;;;;;;9.00;62.50;;;;;;4373430;32;20000;-40
2021/11/07 03:49:40;;;;;;;;;;;9.00;62.40;;;;;;4373335;32;20434;-40
2021/11/07 03:52:07;;;;;;;;;;;9.00;62.40;;;;;;4372405;32;20009;-40
2021/11/07 03:54:33;;;;;;;;;;;9.10;62.40;;;;;;4373321;32;19976;-40
2021/11/07 03:57:00;;;;;;;;;;;9.10;62.40;;;;;;4372037;32;19973;-40
2021/11/07 03:59:27;;;;;;;;;;;9.20;62.40;;;;;;4373667;32;19985;-40
2021/11/07 04:01:53;;;;;;;;;;;9.20;62.30;;;;;;4374005;32;19965;-41
2021/11/07 04:04:19;;;;;;;;;;;9.20;62.40;;;;;;4372140;32;19962;-40
2021/11/07 04:06:45;;;;;;;;;;;9.20;62.40;;;;;;4373368;32;20371;-40
2021/11/07 04:09:11;;;;;;;;;;;9.20;62.40;;;;;;4374391;32;20052;-40
2021/11/07 04:11:38;;;;;;;;;;;9.20;62.40;;;;;;4376452;32;20458;-41
2021/11/07 04:14:06;;;;;;;;;;;9.20;62.50;;;;;;4376722;32;19974;-40
2021/11/07 04:16:32;;;;;;;;;;;9.20;62.60;;;;;;4376164;32;19973;-41
2021/11/07 04:18:59;;;;;;;;;;;9.20;62.70;;;;;;4358828;32;19978;-40
2021/11/07 04:21:25;;;;;;;;;;;9.20;62.70;;;;;;4358920;32;19978;-40
2021/11/07 04:23:52;;;;;;;;;;;9.20;62.80;;;;;;4358814;32;19974;-41
2021/11/07 04:26:19;;;;;;;;;;;9.20;62.90;;;;;;4346334;32;19993;-40
2021/11/07 04:28:46;;;;;;;;;;;9.20;63.00;;;;;;4334378;32;19994;-40
2021/11/07 04:31:12;;;;;;;;;;;9.20;63.00;;;;;;4358790;32;19974;-39
2021/11/07 04:33:38;;;;;;;;;;;9.30;63.10;;;;;;4358625;32;19967;-40
2021/11/07 04:36:05;;;;;;;;;;;9.20;63.00;;;;;;4358503;32;20134;-40
2021/11/07 04:38:31;;;;;;;;;;;9.30;63.00;;;;;;4359039;32;19978;-40
2021/11/07 04:40:57;;;;;;;;;;;9.30;63.10;;;;;;4346374;32;19970;-39
2021/11/07 04:43:24;;;;;;;;;;;9.30;63.20;;;;;;4359203;32;19986;-40
2021/11/07 04:45:50;;;;;;;;;;;9.30;63.20;;;;;;4350711;32;19990;-39
2021/11/07 04:48:16;;;;;;;;;;;9.30;63.20;;;;;;4343225;33;20403;-39
2021/11/07 04:50:43;;;;;;;;;;;9.30;63.20;;;;;;4367295;32;20443;-40
2021/11/07 04:53:10;;;;;;;;;;;9.30;63.20;;;;;;4373509;32;19974;-39
2021/11/07 04:55:38;;;;;;;;;;;9.40;63.30;;;;;;4373457;32;19981;-40
2021/11/07 04:58:05;;;;;;;;;;;9.40;63.20;;;;;;4373619;32;20063;-40
2021/11/07 05:00:32;;;;;;;;;;;9.40;63.20;;;;;;4373218;32;20056;-40
2021/11/07 05:03:02;;;;;;;;;;;9.40;63.10;;;;;;4373311;32;19981;-40
2021/11/07 05:05:28;;;;;;;;;;;9.40;63.10;;;;;;4373454;32;19996;-40
2021/11/07 05:07:56;;;;;;;;;;;9.40;63.10;;;;;;4373177;32;20459;-40
2021/11/07 05:10:23;;;;;;;;;;;9.40;63.10;;;;;;4372841;32;19981;-40
2021/11/07 05:12:49;;;;;;;;;;;9.40;63.00;;;;;;4372672;32;20116;-40
2021/11/07 05:15:16;;;;;;;;;;;9.40;63.00;;;;;;4372623;32;19980;-40
2021/11/07 05:17:42;;;;;;;;;;;9.40;63.00;;;;;;4360049;32;20076;-40
2021/11/07 05:20:09;;;;;;;;;;;9.40;63.10;;;;;;4374410;32;19985;-40
2021/11/07 05:22:36;;;;;;;;;;;9.40;63.30;;;;;;4360981;32;20455;-39
2021/11/07 05:25:04;;;;;;;;;;;9.40;63.30;;;;;;4375027;32;20394;-40
2021/11/07 05:27:30;;;;;;;;;;;9.40;63.30;;;;;;4375614;32;19965;-39
2021/11/07 05:29:56;;;;;;;;;;;9.50;63.30;;;;;;4375291;32;19973;-39
2021/11/07 05:32:22;;;;;;;;;;;9.40;63.30;;;;;;4375283;32;19969;-39
2021/11/07 05:34:49;;;;;;;;;;;9.50;63.40;;;;;;4375280;32;20001;-40
2021/11/07 05:37:15;;;;;;;;;;;9.50;63.50;;;;;;4375522;32;20410;-39
2021/11/07 05:39:41;;;;;;;;;;;9.50;63.40;;;;;;4375135;32;19970;-39
2021/11/07 05:42:09;;;;;;;;;;;9.60;63.50;;;;;;4374948;32;19958;-40
2021/11/07 05:44:35;;;;;;;;;;;9.60;63.40;;;;;;4375465;32;20002;-40
2021/11/07 05:47:01;;;;;;;;;;;9.60;63.30;;;;;;4374796;32;20450;-40
2021/11/07 05:49:28;;;;;;;;;;;9.60;63.30;;;;;;4375084;32;20049;-40
2021/11/07 05:51:54;;;;;;;;;;;9.60;63.40;;;;;;4375225;32;20007;-41
2021/11/07 05:54:20;;;;;;;;;;;9.60;63.50;;;;;;4375191;32;20403;-40
2021/11/07 05:56:46;;;;;;;;;;;9.60;63.50;;;;;;4375111;32;19966;-39
2021/11/07 05:59:13;;;;;;;;;;;9.60;63.40;;;;;;4375456;32;20069;-40
2021/11/07 06:01:39;;;;;;;;;;;9.70;63.40;;;;;;4374511;32;20452;-40
2021/11/07 06:04:05;;;;;;;;;;;9.70;63.40;;;;;;4374869;32;19976;-39
2021/11/07 06:06:32;;;;;;;;;;;9.70;63.40;;;;;;4374854;32;19969;-39
2021/11/07 06:08:58;;;;;;;;;;;9.70;63.50;;;;;;4373271;32;19978;-40
2021/11/07 06:11:24;;;;;;;;;;;9.80;63.50;;;;;;4372979;32;19980;-40
2021/11/07 06:13:50;;;;;;;;;;;9.80;63.40;;;;;;4360689;32;19974;-40
2021/11/07 06:16:17;;;;;;;;;;;9.80;63.40;;;;;;4375044;32;19957;-40
2021/11/07 06:18:43;;;;;;;;;;;9.90;63.20;;;;;;4374511;32;20402;-40
2021/11/07 06:21:10;;;;;;;;;;;9.80;63.20;;;;;;4374335;32;19973;-39
2021/11/07 06:23:37;;;;;;;;;;;9.80;63.30;;;;;;4380063;32;20463;-40
2021/11/07 06:26:03;;;;;;;;;;;9.80;63.30;;;;;;4389261;32;20046;-40
2021/11/07 06:28:29;;;;;;;;;;;9.80;63.30;;;;;;4389513;32;20425;-40
2021/11/07 06:30:59;;;;;;;;;;;9.80;63.40;;;;;;4389648;32;20005;-40
2021/11/07 06:33:25;;;;;;;;;;;9.80;63.50;;;;;;4388922;32;19993;-39
2021/11/07 06:35:52;;;;;;;;;;;9.80;63.50;;;;;;4371747;32;19966;-39
2021/11/07 06:38:18;;;;;;;;;;;9.80;63.60;;;;;;4371967;32;19970;-40
2021/11/07 06:40:44;;;;;;;;;;;9.80;63.60;;;;;;4371318;32;20562;-40
2021/11/07 06:43:10;;;;;;;;;;;9.80;63.60;;;;;;4371773;32;19962;-39
2021/11/07 06:45:37;;;;;;;;;;;9.80;63.60;;;;;;4365249;32;19966;-40
2021/11/07 06:48:03;;;;;;;;;;;9.90;63.70;;;;;;4357315;32;19970;-40
2021/11/07 06:50:30;;;;;;;;;;;9.90;63.80;;;;;;4344935;32;20013;-40
2021/11/07 06:52:56;;;;;;;;;;;9.90;63.80;;;;;;4356589;32;20456;-39
2021/11/07 06:55:22;;;;;;;;;;;9.90;64.50;;;;;;4356771;32;19966;-41
2021/11/07 06:57:49;;;;;;;;;;;10.00;64.00;;;;;;4356679;32;19971;-40
2021/11/07 07:00:18;;;;;;;;;;;10.00;64.00;;;;;;4356518;32;19982;-40
2021/11/07 07:02:44;;;;;;;;;;;10.00;64.00;;;;;;4356531;32;19966;-40
2021/11/07 07:05:11;;;;;;;;;;;10.00;64.00;;;;;;4356830;32;19974;-41
2021/11/07 07:07:41;;;;;;;;;;;10.10;64.10;;;;;;4356609;32;19962;-41
2021/11/07 07:10:09;;;;;;;;;;;10.00;64.00;;;;;;4344965;32;19970;-39
2021/11/07 07:12:43;;;;;;;;;;;10.10;64.10;;;;;;4360374;32;19966;-42
2021/11/07 07:15:14;;;;;;;;;;;10.10;64.00;;;;;;4374095;32;19968;-41
2021/11/07 07:17:49;;;;;;;;;;;10.10;64.00;;;;;;4373768;32;20060;-39
2021/11/07 07:25:58;;;;;;;;;;;10.20;64.10;;;;;;4373433;32;20051;-39
2021/11/07 07:28:33;;;;;;;;;;;10.20;64.10;;;;;;4373579;32;20419;-39
2021/11/07 07:35:57;;;;;;;;;;;10.40;64.20;;;;;;4373648;32;20006;-40
2021/11/07 07:38:24;;;;;;;;;;;10.50;64.20;;;;;;4373440;32;20387;-41
2021/11/07 07:40:51;;;;;;;;;;;10.50;64.30;;;;;;4373600;32;19970;-40
2021/11/07 07:43:18;;;;;;;;;;;10.60;64.40;;;;;;4373371;32;19977;-39
2021/11/07 07:45:44;;;;;;;;;;;10.70;64.50;;;;;;4372840;32;19962;-40
2021/11/07 07:48:10;;;;;;;;;;;10.80;64.40;;;;;;4373228;32;19962;-40
2021/11/07 07:50:40;;;;;;;;;;;10.90;64.30;;;;;;4373711;32;19978;-40
2021/11/07 07:53:07;;;;;;;;;;;11.10;64.30;;;;;;4360158;32;19969;-41
2021/11/07 07:55:34;;;;;;;;;;;11.10;63.90;;;;;;4373314;32;19970;-41
2021/11/07 07:58:00;;;;;;;;;;;11.20;63.60;;;;;;4359195;32;19965;-41
2021/11/07 08:00:27;;;;;;;;;;;11.30;63.60;;;;;;4373308;32;20012;-41
2021/11/07 08:02:54;;;;;;;;;;;11.40;63.40;;;;;;4372522;32;19978;-41
2021/11/07 08:05:20;;;;;;;;;;;11.50;63.30;;;;;;4340656;33;20383;-42
2021/11/07 08:07:46;;;;;;;;;;;11.50;62.80;;;;;;4341008;33;19962;-41
2021/11/07 08:10:13;;;;;;;;;;;11.60;62.50;;;;;;4340959;33;20040;-42
2021/11/07 08:12:39;;;;;;;;;;;11.60;62.20;;;;;;4340839;33;20080;-41
2021/11/07 08:15:06;;;;;;;;;;;11.60;62.40;;;;;;4341098;33;20425;-43
2021/11/07 08:17:33;;;;;;;;;;;11.70;61.70;;;;;;4325873;33;19983;-42
2021/11/07 08:20:02;;;;;;;;;;;11.70;61.40;;;;;;4325897;33;20002;-42
2021/11/07 08:22:28;;;;;;;;;;;11.70;61.10;;;;;;4325652;33;20556;-43
2021/11/07 08:24:55;;;;;;;;;;;11.70;61.10;;;;;;4325694;33;20050;-43
2021/11/07 08:27:21;;;;;;;;;;;11.70;61.00;;;;;;4325862;33;19971;-42
2021/11/07 08:29:52;;;;;;;;;;;11.70;60.80;;;;;;4326037;33;19971;-42
2021/11/07 08:32:18;;;;;;;;;;;11.70;60.80;;;;;;4325839;33;19991;-43
2021/11/07 08:34:46;;;;;;;;;;;11.60;60.80;;;;;;4325965;33;19971;-42
2021/11/07 08:37:14;;;;;;;;;;;11.60;60.80;;;;;;4325751;33;20360;-43
2021/11/07 08:39:46;;;;;;;;;;;11.60;60.80;;;;;;4326214;33;19978;-40
2021/11/07 08:42:20;;;;;;;;;;;11.60;60.80;;;;;;4329811;33;19981;-41
2021/11/07 09:01:24;;;;;;;;;;;11.50;61.40;;;;;;4390517;32;20048;-45
2021/11/07 09:09:21;;;;;;;;;;;11.60;61.50;;;;;;4390127;32;19992;-45
2021/11/07 09:11:52;;;;;;;;;;;11.70;61.30;;;;;;4390900;32;19961;-47
2021/11/07 09:14:21;;;;;;;;;;;11.70;61.40;;;;;;4390658;32;20044;-47
2021/11/07 09:16:48;;;;;;;;;;;11.80;61.10;;;;;;4390314;32;19969;-46
2021/11/07 09:19:19;;;;;;;;;;;11.90;60.80;;;;;;4390389;32;19973;-45
2021/11/07 09:21:50;;;;;;;;;;;12.00;60.70;;;;;;4390373;32;19971;-45
2021/11/07 09:24:30;;;;;;;;;;;12.00;60.50;;;;;;4390658;32;19970;-48
2021/11/07 09:26:57;;;;;;;;;;;12.10;60.40;;;;;;4390322;32;19989;-47
2021/11/07 09:29:46;;;;;;;;;;;12.20;60.20;;;;;;4390320;32;20425;-47
2021/11/07 09:35:12;;;;;;;;;;;12.30;59.80;;;;;;4376605;32;20008;-47
2021/11/07 09:37:42;;;;;;;;;;;12.40;59.80;;;;;;4389552;32;20085;-44
2021/11/07 09:40:11;;;;;;;;;;;12.50;59.40;;;;;;4390433;32;19970;-45
2021/11/07 09:43:35;;;;;;;;;;;12.60;58.80;;;;;;4390015;32;19989;-45
2021/11/07 09:46:04;;;;;;;;;;;12.60;58.60;;;;;;4379883;32;19993;-47
2021/11/07 09:48:27;;;;;;;;;;;12.70;58.40;;;;;;4373798;32;19970;-48
2021/11/07 09:50:53;;;;;;;;;;;12.80;58.10;;;;;;4375194;32;19966;-47
2021/11/07 09:53:20;;;;;;;;;;;12.80;57.60;;;;;;4374779;32;20054;-45
2021/11/07 09:55:47;;;;;;;;;;;12.80;57.40;;;;;;4375233;32;20012;-45
2021/11/07 09:58:14;;;;;;;;;;;12.90;57.00;;;;;;4375473;32;20041;-47
2021/11/07 10:00:45;;;;;;;;;;;12.90;56.50;;;;;;4360930;32;19970;-45
2021/11/07 10:03:13;;;;;;;;;;;12.90;56.30;;;;;;4375079;32;20411;-44
2021/11/07 10:05:43;;;;;;;;;;;13.00;55.90;;;;;;4374981;32;19968;-45
2021/11/07 10:08:11;;;;;;;;;;;13.00;55.80;;;;;;4374294;32;19966;-43
2021/11/07 10:10:44;;;;;;;;;;;13.00;55.90;;;;;;4374634;32;19958;-45
2021/11/07 10:13:22;;;;;;;;;;;13.00;55.90;;;;;;4375280;32;19953;-46
2021/11/07 10:16:05;;;;;;;;;;;13.00;55.70;;;;;;4374613;32;20469;-47
2021/11/07 10:18:43;;;;;;;;;;;13.10;55.80;;;;;;4374592;32;20052;-46
2021/11/07 10:21:20;;;;;;;;;;;13.10;55.50;;;;;;4374480;32;19962;-44
2021/11/07 10:23:50;;;;;;;;;;;13.10;55.30;;;;;;4381175;32;19969;-44
2021/11/07 10:26:22;;;;;;;;;;;13.10;55.20;;;;;;4363860;32;20043;-42
2021/11/07 10:28:55;;;;;;;;;;;13.20;55.10;;;;;;4341680;33;20050;-44
2021/11/07 10:31:43;;;;;;;;;;;13.20;55.00;;;;;;4342469;33;20054;-43
2021/11/07 10:40:03;;;;;;;;;;;13.10;54.00;;;;;;4342024;33;20055;-43
2021/11/07 10:45:27;;;;;;;;;;;12.90;53.40;;;;;;4342070;33;19994;-43
2021/11/07 10:53:23;;;;;;;;;;;12.70;53.20;;;;;;4341562;33;19978;-41
2021/11/07 10:55:51;;;;;;;;;;;12.70;53.40;;;;;;4341671;33;19974;-42
2021/11/07 10:58:27;;;;;;;;;;;12.70;53.60;;;;;;4342257;33;20057;-42
2021/11/07 11:00:53;;;;;;;;;;;12.70;53.60;;;;;;4341709;33;20220;-40
2021/11/07 11:03:21;;;;;;;;;;;12.70;53.70;;;;;;4341903;33;19977;-42
2021/11/07 11:06:14;;;;;;;;;;;12.70;53.90;;;;;;4355310;32;20468;-42
2021/11/07 11:11:32;;;;;;;;;;;12.70;53.70;;;;;;4389315;32;20040;-43
2021/11/07 11:14:24;;;;;;;;;;;12.70;53.70;;;;;;4389112;32;20065;-42
2021/11/07 11:33:40;;;;;;;;;;;13.50;53.20;;;;;;4388893;32;20013;-43
2021/11/07 11:38:39;;;;;;;;;;;13.80;52.50;;;;;;4388170;32;19966;-42
2021/11/07 11:41:10;;;;;;;;;;;14.00;52.30;;;;;;4388582;32;19977;-43
2021/11/07 11:43:43;;;;;;;;;;;14.20;51.30;;;;;;4388675;32;20015;-43
2021/11/07 11:46:18;;;;;;;;;;;14.40;50.90;;;;;;4378465;32;20446;-44
2021/11/07 11:57:08;;;;;;;;;;;14.50;48.10;;;;;;4373143;32;19946;-41
2021/11/07 12:00:00;;;;;;;;;;;14.50;47.90;;;;;;4373239;32;20040;-41
2021/11/07 12:02:28;;;;;;;;;;;14.40;47.90;;;;;;4372734;32;19973;-41
2021/11/07 12:08:09;;;;;;;;;;;14.30;48.20;;;;;;4373060;32;20039;-41
2021/11/07 12:10:43;;;;;;;;;;;14.30;48.30;;;;;;4361619;32;19962;-41
2021/11/07 12:13:41;;;;;;;;;;;14.20;48.30;;;;;;4373066;32;19977;-41
2021/11/07 12:16:27;;;;;;;;;;;14.20;48.10;;;;;;4373199;32;20050;-42
2021/11/07 12:19:04;;;;;;;;;;;14.20;48.20;;;;;;4372774;32;20503;-41
2021/11/07 12:21:50;;;;;;;;;;;14.10;48.40;;;;;;4372998;32;19973;-41
2021/11/07 12:24:17;;;;;;;;;;;14.10;48.40;;;;;;4372557;32;19993;-41
2021/11/07 12:26:43;;;;;;;;;;;14.10;48.50;;;;;;4372608;32;19988;-41
2021/11/07 12:29:12;;;;;;;;;;;14.00;48.70;;;;;;4358667;32;19973;-42
2021/11/07 12:32:11;;;;;;;;;;;14.00;48.70;;;;;;4375616;32;19969;-41
2021/11/07 12:35:22;;;;;;;;;;;14.00;48.70;;;;;;4328960;33;20018;-42
2021/11/07 12:41:01;;;;;;;;;;;13.90;48.80;;;;;;4328917;33;19975;-42
2021/11/07 12:43:41;;;;;;;;;;;13.90;48.90;;;;;;4328607;33;20029;-42
2021/11/07 12:46:54;;;;;;;;;;;13.90;49.00;;;;;;4338261;33;19986;-42
2021/11/07 12:49:22;;;;;;;;;;;13.80;48.80;;;;;;4299918;33;19979;-41
2021/11/07 12:51:49;;;;;;;;;;;13.80;48.80;;;;;;4299669;33;20491;-41
2021/11/07 12:54:24;;;;;;;;;;;13.60;48.80;;;;;;4287729;33;20123;-43
2021/11/07 12:57:06;;;;;;;;;;;13.60;49.00;;;;;;4300014;33;20056;-42
2021/11/07 12:59:46;;;;;;;;;;;13.60;49.10;;;;;;4299171;33;20018;-40
2021/11/07 13:02:23;;;;;;;;;;;13.50;49.40;;;;;;4299587;33;19971;-43
2021/11/07 13:05:13;;;;;;;;;;;13.40;49.70;;;;;;4299381;33;19964;-42
2021/11/07 13:07:48;;;;;;;;;;;13.40;50.00;;;;;;4289401;33;19972;-42
2021/11/07 13:10:31;;;;;;;;;;;13.40;50.30;;;;;;4313743;33;19998;-43
2021/11/07 13:13:03;;;;;;;;;;;13.40;50.40;;;;;;4328364;33;20006;-41
2021/11/07 13:31:49;;;;;;;;;;;13.20;48.70;;;;;;4360231;32;19970;-44
2021/11/07 13:34:18;;;;;;;;;;;13.10;47.90;;;;;;4375146;32;19992;-43
2021/11/07 13:36:46;;;;;;;;;;;13.10;47.50;;;;;;4375080;32;20440;-43
2021/11/07 13:39:27;;;;;;;;;;;13.00;47.30;;;;;;4375065;32;19970;-44
2021/11/07 13:42:03;;;;;;;;;;;12.90;47.10;;;;;;4374663;32;20015;-44
2021/11/07 13:44:36;;;;;;;;;;;12.90;46.90;;;;;;4375142;32;19962;-41
2021/11/07 13:47:05;;;;;;;;;;;12.80;46.90;;;;;;4346272;32;19963;-43
2021/11/07 13:49:31;;;;;;;;;;;12.80;46.70;;;;;;4360282;32;19958;-42
2021/11/07 13:52:02;;;;;;;;;;;12.80;46.20;;;;;;4360025;32;20477;-44
2021/11/07 13:54:28;;;;;;;;;;;12.70;45.90;;;;;;4359868;32;20074;-42
2021/11/07 13:56:54;;;;;;;;;;;12.70;45.80;;;;;;4360105;32;20430;-44
2021/11/07 13:59:31;;;;;;;;;;;12.70;45.60;;;;;;4359669;32;20027;-44
2021/11/07 14:01:57;;;;;;;;;;;12.70;45.40;;;;;;4346487;32;19970;-43
2021/11/07 14:04:23;;;;;;;;;;;12.60;45.00;;;;;;4359968;32;20396;-43
2021/11/07 14:06:50;;;;;;;;;;;12.60;44.90;;;;;;4345787;32;19963;-43
2021/11/07 14:09:18;;;;;;;;;;;12.60;44.30;;;;;;4359931;32;19978;-43
2021/11/07 14:11:48;;;;;;;;;;;12.60;44.20;;;;;;4359238;32;20441;-43
2021/11/07 14:14:16;;;;;;;;;;;12.60;44.30;;;;;;4359421;32;19959;-42
2021/11/07 14:16:46;;;;;;;;;;;12.60;43.90;;;;;;4359888;32;20057;-42
2021/11/07 14:19:13;;;;;;;;;;;12.60;43.60;;;;;;4359488;32;19958;-43
2021/11/07 14:21:44;;;;;;;;;;;12.60;43.30;;;;;;4359956;32;19999;-43
2021/11/07 14:24:17;;;;;;;;;;;12.60;43.40;;;;;;4368472;32;20046;-43
2021/11/07 14:26:52;;;;;;;;;;;12.60;43.30;;;;;;4374228;32;19961;-44
2021/11/07 14:29:30;;;;;;;;;;;12.60;43.30;;;;;;4374168;32;20434;-42
2021/11/07 14:32:29;;;;;;;;;;;12.50;43.30;;;;;;4374461;32;19969;-42
2021/11/07 14:35:20;;;;;;;;;;;12.50;43.20;;;;;;4374712;32;20046;-43
2021/11/07 14:38:02;;;;;;;;;;;12.50;43.20;;;;;;4374297;32;19970;-44
2021/11/07 14:40:45;;;;;;;;;;;12.40;43.30;;;;;;4374631;32;20041;-44
2021/11/07 14:43:20;;;;;;;;;;;12.40;43.40;;;;;;4373737;32;19978;-44
2021/11/07 14:46:07;;;;;;;;;;;12.40;43.60;;;;;;4374295;32;19987;-42
2021/11/07 14:57:07;;;;;;;;;;;12.40;43.80;;;;;;4357259;32;19970;-45
2021/11/07 15:00:02;;;;;;;;;;;12.40;43.80;;;;;;4371763;32;19997;-45
2021/11/07 15:05:23;;;;;;;;;;;12.30;42.90;;;;;;4371433;32;19977;-45
2021/11/07 15:07:53;;;;;;;;;;;12.30;42.90;;;;;;4371670;32;20106;-46
2021/11/07 15:10:47;;;;;;;;;;;12.30;42.30;;;;;;4371488;32;20085;-47
2021/11/07 15:13:20;;;;;;;;;;;12.30;42.40;;;;;;4371059;32;20002;-48
2021/11/07 15:18:32;;;;;;;;;;;12.30;42.20;;;;;;4371441;32;19977;-47
2021/11/07 15:21:11;;;;;;;;;;;12.30;42.30;;;;;;4371464;32;20060;-47
2021/11/07 15:23:42;;;;;;;;;;;12.40;42.60;;;;;;4371126;32;19969;-46
2021/11/07 15:26:17;;;;;;;;;;;12.50;42.50;;;;;;4373676;32;19973;-49
2021/11/07 15:28:43;;;;;;;;;;;12.50;42.40;;;;;;4373716;32;19966;-47
2021/11/07 15:31:19;;;;;;;;;;;12.60;42.30;;;;;;4373722;32;19969;-46
2021/11/07 15:33:45;;;;;;;;;;;12.60;42.30;;;;;;4373412;32;20486;-48
2021/11/07 15:36:11;;;;;;;;;;;12.60;42.30;;;;;;4373868;32;20021;-47
2021/11/07 15:38:38;;;;;;;;;;;12.70;42.20;;;;;;4371638;32;20362;-47
2021/11/07 15:41:10;;;;;;;;;;;12.70;42.10;;;;;;4373803;32;20033;-45
2021/11/07 15:43:36;;;;;;;;;;;12.70;42.20;;;;;;4373913;32;20062;-47
2021/11/07 15:46:13;;;;;;;;;;;12.70;42.30;;;;;;4361766;32;19990;-47
2021/11/07 15:48:43;;;;;;;;;;;12.70;42.30;;;;;;4356294;32;20044;-46
2021/11/07 15:51:16;;;;;;;;;;;12.80;42.40;;;;;;4356221;32;19977;-47
2021/11/07 15:59:23;;;;;;;;;;;12.80;42.30;;;;;;4355771;32;19966;-48
2021/11/07 16:02:02;;;;;;;;;;;12.80;42.40;;;;;;4356211;32;20000;-47
2021/11/07 16:07:18;;;;;;;;;;;12.70;42.50;;;;;;4345128;32;19967;-47
2021/11/07 16:17:28;;;;;;;;;;;12.50;42.70;;;;;;4355840;32;19973;-49
2021/11/07 16:19:57;;;;;;;;;;;12.50;42.80;;;;;;4356257;32;19977;-49
2021/11/07 16:22:24;;;;;;;;;;;12.40;43.00;;;;;;4356633;32;19967;-49
2021/11/07 16:24:51;;;;;;;;;;;12.30;43.20;;;;;;4372881;32;19973;-47
2021/11/07 16:27:21;;;;;;;;;;;12.30;43.60;;;;;;4373248;32;19954;-47
2021/11/07 16:29:48;;;;;;;;;;;12.20;43.90;;;;;;4373584;32;19966;-48
2021/11/07 16:32:20;;;;;;;;;;;12.20;44.40;;;;;;4340525;33;20050;-48
2021/11/07 16:37:21;;;;;;;;;;;12.10;45.60;;;;;;4341076;33;20068;-45
2021/11/07 16:39:59;;;;;;;;;;;12.10;45.90;;;;;;4341031;33;20179;-48
2021/11/07 16:42:25;;;;;;;;;;;12.00;46.00;;;;;;4340585;33;20052;-49
2021/11/07 16:44:53;;;;;;;;;;;12.00;46.20;;;;;;4340605;33;19986;-49
2021/11/07 16:47:24;;;;;;;;;;;12.00;46.50;;;;;;4340961;33;19971;-46
2021/11/07 16:49:53;;;;;;;;;;;12.00;46.60;;;;;;4340969;33;20047;-43
2021/11/07 16:52:22;;;;;;;;;;;12.00;47.50;;;;;;4340823;33;19974;-48
2021/11/07 16:57:21;;;;;;;;;;;12.10;46.60;;;;;;4340728;33;19970;-48
2021/11/07 17:02:37;;;;;;;;;;;12.30;46.40;;;;;;4346660;32;19990;-50
2021/11/07 17:07:54;;;;;;;;;;;12.40;46.20;;;;;;4372980;32;19962;-41
2021/11/07 17:10:21;;;;;;;;;;;12.50;46.10;;;;;;4373024;32;19958;-49
2021/11/07 17:12:55;;;;;;;;;;;12.60;45.90;;;;;;4372707;32;19962;-49
2021/11/07 17:15:26;;;;;;;;;;;12.60;45.70;;;;;;4373110;32;19972;-47
2021/11/07 17:18:17;;;;;;;;;;;12.60;45.50;;;;;;4375171;32;20435;-44
2021/11/07 17:26:16;;;;;;;;;;;12.60;45.10;;;;;;4375722;32;20079;-49
2021/11/07 17:28:52;;;;;;;;;;;12.50;45.00;;;;;;4375177;32;19979;-47
2021/11/07 17:31:29;;;;;;;;;;;12.50;45.00;;;;;;4375398;32;20072;-47
2021/11/07 17:34:16;;;;;;;;;;;12.50;45.00;;;;;;4375324;32;19958;-47